createdAt,value
2022-08-22T00:01:50.670Z,9.57
2022-08-22T00:02:44.326Z,7.80
2022-08-22T00:04:25.907Z,7.83
2022-08-22T00:07:00.330Z,8.07
2022-08-22T00:09:36.073Z,9.00
2022-08-22T00:12:20.687Z,9.20
2022-08-22T00:14:54.955Z,9.17
2022-08-22T00:17:40.809Z,7.67
2022-08-22T00:20:15.705Z,7.83
2022-08-22T00:22:50.069Z,7.47
2022-08-22T00:25:38.045Z,8.60
2022-08-22T00:28:11.511Z,9.17
2022-08-22T00:30:49.204Z,8.60
2022-08-22T00:33:27.968Z,8.67
2022-08-22T00:36:09.055Z,9.40
2022-08-22T00:38:42.212Z,10.20
2022-08-22T00:41:24.435Z,10.30
2022-08-22T00:44:05.449Z,9.60
2022-08-22T00:47:20.625Z,8.77
2022-08-22T00:50:18.660Z,8.40
2022-08-22T00:53:03.907Z,8.90
2022-08-22T00:55:44.949Z,10.20
2022-08-22T00:58:41.526Z,10.53
2022-08-22T01:01:13.231Z,8.93
2022-08-22T01:04:16.955Z,8.33
2022-08-22T01:06:58.819Z,8.73
2022-08-22T01:09:43.480Z,7.77
2022-08-22T01:12:34.640Z,11.50
2022-08-22T01:15:06.357Z,10.07
2022-08-22T01:17:55.553Z,11.33
2022-08-22T01:20:57.061Z,8.80
2022-08-22T01:23:45.331Z,10.83
2022-08-22T01:26:45.149Z,10.40
2022-08-22T01:29:45.412Z,9.40
2022-08-22T01:32:50.522Z,7.80
2022-08-22T01:35:46.185Z,8.33
2022-08-22T01:38:38.368Z,8.07
2022-08-22T01:41:26.865Z,11.43
2022-08-22T01:44:13.073Z,9.63
2022-08-22T01:46:55.268Z,9.97
2022-08-22T01:49:28.159Z,8.80
2022-08-22T01:52:05.470Z,12.40
2022-08-22T01:54:45.111Z,10.10
2022-08-22T01:57:14.026Z,8.17
2022-08-22T01:59:44.382Z,8.93
2022-08-22T02:02:37.926Z,9.40
2022-08-22T02:05:12.161Z,9.63
2022-08-22T02:07:49.606Z,8.80
2022-08-22T02:10:23.521Z,10.23
2022-08-22T02:13:03.397Z,11.50
2022-08-22T02:15:45.149Z,9.70
2022-08-22T02:18:19.722Z,10.40
2022-08-22T02:21:00.668Z,12.93
2022-08-22T02:23:38.007Z,10.03
2022-08-22T02:26:10.471Z,13.07
2022-08-22T02:28:56.601Z,12.27
2022-08-22T02:31:36.679Z,8.80
2022-08-22T02:34:21.321Z,9.13
2022-08-22T02:36:54.915Z,12.13
2022-08-22T02:39:36.053Z,9.70
2022-08-22T02:42:17.141Z,10.57
2022-08-22T02:45:02.365Z,10.33
2022-08-22T02:47:37.138Z,11.27
2022-08-22T02:50:14.179Z,9.50
2022-08-22T02:52:56.860Z,9.23
2022-08-22T02:55:40.151Z,9.87
2022-08-22T02:58:15.603Z,10.73
2022-08-22T03:00:48.158Z,9.80
2022-08-22T03:03:20.938Z,9.60
2022-08-22T03:06:02.047Z,11.30
2022-08-22T03:08:34.400Z,12.17
2022-08-22T03:11:15.060Z,9.20
2022-08-22T03:13:54.622Z,8.43
2022-08-22T03:16:28.922Z,8.40
2022-08-22T03:19:02.596Z,10.83
2022-08-22T03:21:36.665Z,9.33
2022-08-22T03:24:11.763Z,10.57
2022-08-22T03:26:47.316Z,12.87
2022-08-22T03:29:21.381Z,13.10
2022-08-22T03:32:10.254Z,8.90
2022-08-22T03:34:39.599Z,9.47
2022-08-22T03:37:14.299Z,9.70
2022-08-22T03:40:00.931Z,10.17
2022-08-22T03:43:08.525Z,8.07
2022-08-22T03:46:04.348Z,10.97
2022-08-22T03:48:51.084Z,8.50
2022-08-22T03:51:32.237Z,8.60
2022-08-22T03:54:30.666Z,10.17
2022-08-22T03:57:37.947Z,9.83
2022-08-22T04:00:29.868Z,8.63
2022-08-22T04:03:17.729Z,9.23
2022-08-22T04:06:11.577Z,9.60
2022-08-22T04:09:14.085Z,10.83
2022-08-22T04:12:03.679Z,13.20
2022-08-22T04:14:59.534Z,9.33
2022-08-22T04:17:53.174Z,11.00
2022-08-22T04:21:07.113Z,9.30
2022-08-22T04:24:02.372Z,10.30
2022-08-22T04:26:37.751Z,7.63
2022-08-22T04:29:09.747Z,9.03
2022-08-22T04:31:46.288Z,9.97
2022-08-22T04:34:22.063Z,12.47
2022-08-22T04:36:57.873Z,9.70
2022-08-22T04:39:34.339Z,9.70
2022-08-22T04:42:29.187Z,9.70
2022-08-22T04:45:01.901Z,10.20
2022-08-22T04:47:34.980Z,8.30
2022-08-22T04:50:15.865Z,9.63
2022-08-22T04:53:00.225Z,13.03
2022-08-22T04:55:34.908Z,10.87
2022-08-22T04:58:11.935Z,10.83
2022-08-22T05:00:56.110Z,9.67
2022-08-22T05:03:28.754Z,9.73
2022-08-22T05:06:00.176Z,11.37
2022-08-22T05:08:33.273Z,11.90
2022-08-22T05:11:03.613Z,9.33
2022-08-22T05:13:37.480Z,11.23
2022-08-22T05:16:12.719Z,12.20
2022-08-22T05:18:46.149Z,12.03
2022-08-22T05:21:18.645Z,16.70
2022-08-22T05:23:52.757Z,20.17
2022-08-22T05:26:22.074Z,15.27
2022-08-22T05:28:54.359Z,12.40
2022-08-22T05:31:26.919Z,14.40
2022-08-22T05:33:59.423Z,14.33
2022-08-22T05:36:33.438Z,10.13
2022-08-22T05:39:05.539Z,15.13
2022-08-22T05:41:37.638Z,7.47
2022-08-22T05:44:07.802Z,10.00
2022-08-22T05:46:41.610Z,10.73
2022-08-22T05:49:19.492Z,9.23
2022-08-22T05:52:03.933Z,15.23
2022-08-22T05:54:37.358Z,10.83
2022-08-22T05:57:12.686Z,9.00
2022-08-22T05:59:43.639Z,12.40
2022-08-22T06:02:19.202Z,15.60
2022-08-22T06:04:51.830Z,14.20
2022-08-22T06:07:26.748Z,12.37
2022-08-22T06:10:08.392Z,14.10
2022-08-22T06:12:43.074Z,11.67
2022-08-22T06:15:16.100Z,9.57
2022-08-22T06:17:51.126Z,14.57
2022-08-22T06:20:21.477Z,9.93
2022-08-22T06:22:55.209Z,11.33
2022-08-22T06:25:27.766Z,12.13
2022-08-22T06:27:57.498Z,12.50
2022-08-22T06:30:29.170Z,9.13
2022-08-22T06:33:02.594Z,9.83
2022-08-22T06:35:54.724Z,13.20
2022-08-22T06:38:29.683Z,12.40
2022-08-22T06:41:01.349Z,11.43
2022-08-22T06:43:37.465Z,10.13
2022-08-22T06:46:07.052Z,12.53
2022-08-22T06:48:37.229Z,11.17
2022-08-22T06:51:08.245Z,10.33
2022-08-22T06:53:48.089Z,10.17
2022-08-22T06:56:22.649Z,12.07
2022-08-22T06:58:53.504Z,10.63
2022-08-22T07:01:25.255Z,11.07
2022-08-22T07:03:55.598Z,11.00
2022-08-22T07:06:31.457Z,10.50
2022-08-22T07:09:06.754Z,11.17
2022-08-22T07:11:40.360Z,15.40
2022-08-22T07:14:12.069Z,9.57
2022-08-22T07:16:43.704Z,12.80
2022-08-22T07:19:24.283Z,8.60
2022-08-22T07:21:52.150Z,9.80
2022-08-22T07:24:25.295Z,11.10
2022-08-22T07:27:08.947Z,8.67
2022-08-22T07:29:46.693Z,11.93
2022-08-22T07:32:19.566Z,10.57
2022-08-22T07:35:07.706Z,12.73
2022-08-22T07:37:56.302Z,9.73
2022-08-22T07:40:32.601Z,13.47
2022-08-22T07:43:05.961Z,7.50
2022-08-22T07:45:38.131Z,8.53
2022-08-22T07:48:25.139Z,9.07
2022-08-22T07:51:06.075Z,8.80
2022-08-22T07:53:43.368Z,10.80
2022-08-22T07:56:16.598Z,8.70
2022-08-22T07:58:47.054Z,8.70
2022-08-22T08:01:18.764Z,8.13
2022-08-22T08:03:53.373Z,11.97
2022-08-22T08:06:24.175Z,10.43
2022-08-22T08:08:53.862Z,11.67
2022-08-22T08:11:25.085Z,8.00
2022-08-22T08:13:55.924Z,7.37
2022-08-22T08:16:28.123Z,6.93
2022-08-22T08:18:59.387Z,6.87
2022-08-22T08:21:31.652Z,7.93
2022-08-22T08:24:01.929Z,9.50
2022-08-22T08:26:35.251Z,6.53
2022-08-22T08:29:03.998Z,6.37
2022-08-22T08:31:35.377Z,6.00
2022-08-22T08:34:07.408Z,8.27
2022-08-22T08:36:40.214Z,9.10
2022-08-22T08:39:19.573Z,9.77
2022-08-22T08:42:20.062Z,7.43
2022-08-22T08:45:07.482Z,9.20
2022-08-22T08:47:54.171Z,8.50
2022-08-22T08:51:02.297Z,8.27
2022-08-22T08:54:05.068Z,5.90
2022-08-22T08:56:39.346Z,8.57
2022-08-22T08:59:28.134Z,8.83
2022-08-22T09:02:24.949Z,7.17
2022-08-22T09:05:25.700Z,8.27
2022-08-22T09:08:24.616Z,8.10
2022-08-22T09:11:38.546Z,7.93
2022-08-22T09:14:26.931Z,10.03
2022-08-22T09:17:21.218Z,8.23
2022-08-22T09:20:19.391Z,7.90
2022-08-22T09:23:35.910Z,6.77
2022-08-22T09:26:09.778Z,10.57
2022-08-22T09:28:42.573Z,7.07
2022-08-22T09:31:51.425Z,7.33
2022-08-22T09:34:27.403Z,6.17
2022-08-22T09:37:13.923Z,8.30
2022-08-22T09:39:53.540Z,5.77
2022-08-22T09:42:31.630Z,10.33
2022-08-22T09:45:35.639Z,7.80
2022-08-22T09:48:13.415Z,9.63
2022-08-22T09:50:54.578Z,9.83
2022-08-22T09:53:43.153Z,8.77
2022-08-22T09:56:19.766Z,6.87
2022-08-22T09:58:58.872Z,6.93
2022-08-22T10:01:32.634Z,5.70
2022-08-22T10:04:42.020Z,5.77
2022-08-22T10:07:30.004Z,5.10
2022-08-22T10:10:06.957Z,7.80
2022-08-22T10:12:45.129Z,8.30
2022-08-22T10:15:22.303Z,7.60
2022-08-22T10:18:06.596Z,6.87
2022-08-22T10:20:52.173Z,9.03
2022-08-22T10:23:25.123Z,6.73
2022-08-22T10:26:00.549Z,7.33
2022-08-22T10:28:39.899Z,5.03
2022-08-22T10:31:24.838Z,5.53
2022-08-22T10:34:01.734Z,6.47
2022-08-22T10:36:36.136Z,8.77
2022-08-22T10:39:11.796Z,9.57
2022-08-22T10:41:59.095Z,6.50
2022-08-22T10:44:36.462Z,6.57
2022-08-22T10:47:09.214Z,7.83
2022-08-22T10:49:42.681Z,5.33
2022-08-22T10:52:16.365Z,6.80
2022-08-22T10:54:51.283Z,9.00
2022-08-22T10:57:32.305Z,9.40
2022-08-22T11:00:09.715Z,4.83
2022-08-22T11:02:46.300Z,6.47
2022-08-22T11:05:33.079Z,6.97
2022-08-22T11:08:22.907Z,5.60
2022-08-22T11:11:07.846Z,8.30
2022-08-22T11:13:42.337Z,6.90
2022-08-22T11:16:28.593Z,6.87
2022-08-22T11:19:16.488Z,9.97
2022-08-22T11:21:51.691Z,6.30
2022-08-22T11:24:55.899Z,6.57
2022-08-22T11:27:38.232Z,5.60
2022-08-22T11:30:18.206Z,7.07
2022-08-22T11:33:13.769Z,5.60
2022-08-22T11:35:46.155Z,4.97
2022-08-22T11:38:32.099Z,6.97
2022-08-22T11:41:09.342Z,8.47
2022-08-22T11:43:49.819Z,5.50
2022-08-22T11:46:25.991Z,7.57
2022-08-22T11:49:35.148Z,8.30
2022-08-22T11:52:16.560Z,4.60
2022-08-22T11:55:01.017Z,8.47
2022-08-22T11:57:36.162Z,7.27
2022-08-22T12:00:16.834Z,5.93
2022-08-22T12:03:25.800Z,7.43
2022-08-22T12:05:59.132Z,6.20
2022-08-22T12:08:57.348Z,4.67
2022-08-22T12:11:34.608Z,9.33
2022-08-22T12:14:08.241Z,6.23
2022-08-22T12:16:45.002Z,7.10
2022-08-22T12:19:23.270Z,5.80
2022-08-22T12:22:08.507Z,4.77
2022-08-22T12:24:50.402Z,5.73
2022-08-22T12:27:48.165Z,6.60
2022-08-22T12:30:27.245Z,6.90
2022-08-22T12:33:22.877Z,8.20
2022-08-22T12:36:01.041Z,7.00
2022-08-22T12:38:49.344Z,5.20
2022-08-22T12:42:00.131Z,7.20
2022-08-22T12:44:39.112Z,5.80
2022-08-22T12:47:23.745Z,6.57
2022-08-22T12:50:13.093Z,6.23
2022-08-22T12:53:06.250Z,7.70
2022-08-22T12:55:46.668Z,4.93
2022-08-22T12:58:31.710Z,7.17
2022-08-22T13:01:06.516Z,6.37
2022-08-22T13:03:41.236Z,5.30
2022-08-22T13:06:48.672Z,7.13
2022-08-22T13:09:28.894Z,4.53
2022-08-22T13:12:04.710Z,5.30
2022-08-22T13:14:34.861Z,6.70
2022-08-22T13:17:23.672Z,5.23
2022-08-22T13:20:09.474Z,6.13
2022-08-22T13:22:45.050Z,4.63
2022-08-22T13:25:26.241Z,6.10
2022-08-22T13:27:59.102Z,8.63
2022-08-22T13:30:32.241Z,8.10
2022-08-22T13:33:08.778Z,7.77
2022-08-22T13:35:44.772Z,7.60
2022-08-22T13:38:25.826Z,5.10
2022-08-22T13:40:57.157Z,6.20
2022-08-22T13:43:28.008Z,5.23
2022-08-22T13:45:59.292Z,7.10
2022-08-22T13:48:45.007Z,7.57
2022-08-22T13:51:22.759Z,9.47
2022-08-22T13:54:01.848Z,4.87
2022-08-22T13:56:38.790Z,7.00
2022-08-22T13:59:40.417Z,5.93
2022-08-22T14:02:17.824Z,5.57
2022-08-22T14:04:48.474Z,7.20
2022-08-22T14:07:32.321Z,6.20
2022-08-22T14:10:06.389Z,8.93
2022-08-22T14:13:07.002Z,6.60
2022-08-22T14:15:45.045Z,6.53
2022-08-22T14:18:17.707Z,7.47
2022-08-22T14:20:48.227Z,6.67
2022-08-22T14:23:29.193Z,8.07
2022-08-22T14:25:58.451Z,5.13
2022-08-22T14:28:29.571Z,6.20
2022-08-22T14:31:02.525Z,7.87
2022-08-22T14:33:39.885Z,7.43
2022-08-22T14:36:17.400Z,6.07
2022-08-22T14:38:53.336Z,7.93
2022-08-22T14:41:52.771Z,6.07
2022-08-22T14:44:23.385Z,6.90
2022-08-22T14:46:55.271Z,4.30
2022-08-22T14:49:36.074Z,6.30
2022-08-22T14:52:09.407Z,8.00
2022-08-22T14:54:39.333Z,6.60
2022-08-22T14:57:20.010Z,4.87
2022-08-22T14:59:52.335Z,6.07
2022-08-22T15:02:27.605Z,4.47
2022-08-22T15:04:57.074Z,5.53
2022-08-22T15:07:29.219Z,5.33
2022-08-22T15:10:06.425Z,7.40
2022-08-22T15:12:38.378Z,5.50
2022-08-22T15:15:11.283Z,10.30
2022-08-22T15:17:44.131Z,5.70
2022-08-22T15:20:27.773Z,5.10
2022-08-22T15:22:59.379Z,5.67
2022-08-22T15:25:34.109Z,4.07
2022-08-22T15:28:14.018Z,6.00
2022-08-22T15:30:45.787Z,12.60
2022-08-22T15:33:22.319Z,6.20
2022-08-22T15:35:53.495Z,6.50
2022-08-22T15:38:28.574Z,6.30
2022-08-22T15:41:32.167Z,7.57
2022-08-22T15:44:14.791Z,6.17
2022-08-22T15:47:25.513Z,4.63
2022-08-22T15:50:01.035Z,9.23
2022-08-22T15:52:32.185Z,11.43
2022-08-22T15:55:25.245Z,5.50
2022-08-22T15:58:07.258Z,6.67
2022-08-22T16:00:43.715Z,5.70
2022-08-22T16:03:24.405Z,6.17
2022-08-22T16:05:55.971Z,6.17
2022-08-22T16:08:28.150Z,6.77
2022-08-22T16:11:22.699Z,5.43
2022-08-22T16:14:21.424Z,5.70
2022-08-22T16:17:03.504Z,5.73
2022-08-22T16:19:33.995Z,6.27
2022-08-22T16:22:10.755Z,9.03
2022-08-22T16:25:01.458Z,5.90
2022-08-22T16:27:30.365Z,4.33
2022-08-22T16:30:10.367Z,5.87
2022-08-22T16:32:39.305Z,5.33
2022-08-22T16:35:07.427Z,5.53
2022-08-22T16:37:49.240Z,7.47
2022-08-22T16:40:23.172Z,5.23
2022-08-22T16:43:10.838Z,7.30
2022-08-22T16:45:45.294Z,5.53
2022-08-22T16:48:33.267Z,5.60
2022-08-22T16:51:13.833Z,5.70
2022-08-22T16:54:11.335Z,6.20
2022-08-22T16:57:00.009Z,4.73
2022-08-22T16:59:57.106Z,6.73
2022-08-22T17:02:52.463Z,7.10
2022-08-22T17:05:38.220Z,5.03
2022-08-22T17:08:27.440Z,9.30
2022-08-22T17:11:15.095Z,6.50
2022-08-22T17:14:03.900Z,6.80
2022-08-22T17:16:54.219Z,8.17
2022-08-22T17:19:39.589Z,6.10
2022-08-22T17:22:13.536Z,5.83
2022-08-22T17:24:46.149Z,4.50
2022-08-22T17:27:24.534Z,5.07
2022-08-22T17:30:02.036Z,4.80
2022-08-22T17:32:38.562Z,8.60
2022-08-22T17:35:17.864Z,5.03
2022-08-22T17:37:56.010Z,6.20
2022-08-22T17:40:37.568Z,4.60
2022-08-22T17:43:23.697Z,6.47
2022-08-22T17:46:03.181Z,6.00
2022-08-22T17:48:39.859Z,6.30
2022-08-22T17:51:28.272Z,6.87
2022-08-22T17:54:02.233Z,4.90
2022-08-22T17:56:40.364Z,5.30
2022-08-22T17:59:14.678Z,6.80
2022-08-22T18:01:54.780Z,7.43
2022-08-22T18:04:28.789Z,6.70
2022-08-22T18:07:19.588Z,5.57
2022-08-22T18:09:52.909Z,5.67
2022-08-22T18:12:30.085Z,5.77
2022-08-22T18:15:06.644Z,5.80
2022-08-22T18:17:39.660Z,11.97
2022-08-22T18:20:12.529Z,5.90
2022-08-22T18:22:49.492Z,4.87
2022-08-22T18:25:42.383Z,6.70
2022-08-22T18:28:22.600Z,7.17
2022-08-22T18:30:59.416Z,7.70
2022-08-22T18:33:33.473Z,6.83
2022-08-22T18:36:09.835Z,4.90
2022-08-22T18:38:48.034Z,8.67
2022-08-22T18:41:23.057Z,6.07
2022-08-22T18:43:54.518Z,5.77
2022-08-22T18:46:44.811Z,6.10
2022-08-22T18:49:45.599Z,5.40
2022-08-22T18:52:31.649Z,5.50
2022-08-22T18:55:40.787Z,6.33
2022-08-22T18:58:38.395Z,8.40
2022-08-22T19:01:31.038Z,11.20
2022-08-22T19:04:21.886Z,6.00
2022-08-22T19:07:17.436Z,11.03
2022-08-22T19:10:20.761Z,4.33
2022-08-22T19:13:03.312Z,7.03
2022-08-22T19:15:42.100Z,6.53
2022-08-22T19:18:26.887Z,10.27
2022-08-22T19:21:43.324Z,8.37
2022-08-22T19:24:29.579Z,14.80
2022-08-22T19:27:31.418Z,5.70
2022-08-22T19:30:07.512Z,6.13
2022-08-22T19:33:00.488Z,7.37
2022-08-22T19:35:38.558Z,5.13
2022-08-22T19:38:08.950Z,6.23
2022-08-22T19:40:55.470Z,5.93
2022-08-22T19:43:36.668Z,7.07
2022-08-22T19:46:08.550Z,5.53
2022-08-22T19:48:46.703Z,7.00
2022-08-22T19:51:28.707Z,5.30
2022-08-22T19:54:16.421Z,5.30
2022-08-22T19:57:05.511Z,6.10
2022-08-22T19:59:50.871Z,5.20
2022-08-22T20:02:33.340Z,7.57
2022-08-22T20:05:21.344Z,6.00
2022-08-22T20:08:12.399Z,5.13
2022-08-22T20:10:58.619Z,9.60
2022-08-22T20:13:29.227Z,7.17
2022-08-22T20:16:16.045Z,5.50
2022-08-22T20:19:17.928Z,7.70
2022-08-22T20:21:58.672Z,6.47
2022-08-22T20:24:39.807Z,6.70
2022-08-22T20:27:15.373Z,6.40
2022-08-22T20:29:49.271Z,7.57
2022-08-22T20:32:19.830Z,8.40
2022-08-22T20:34:55.177Z,5.60
2022-08-22T20:37:44.962Z,5.77
2022-08-22T20:40:53.356Z,5.40
2022-08-22T20:43:17.603Z,6.10
2022-08-22T20:46:02.969Z,5.00
2022-08-22T20:48:37.305Z,5.90
2022-08-22T20:51:09.269Z,6.53
2022-08-22T20:53:37.757Z,8.10
2022-08-22T20:56:08.095Z,5.03
2022-08-22T20:58:39.653Z,7.53
2022-08-22T21:01:11.331Z,7.17
2022-08-22T21:03:43.809Z,6.23
2022-08-22T21:06:15.897Z,7.70
2022-08-22T21:08:45.384Z,7.43
2022-08-22T21:11:40.212Z,5.60
2022-08-22T21:14:19.796Z,5.03
2022-08-22T21:16:47.765Z,7.50
2022-08-22T21:19:21.220Z,8.27
2022-08-22T21:21:50.439Z,6.80
2022-08-22T21:24:18.651Z,7.33
2022-08-22T21:26:51.016Z,6.30
2022-08-22T21:29:26.999Z,6.37
2022-08-22T21:32:12.214Z,10.13
2022-08-22T21:34:46.150Z,5.77
2022-08-22T21:37:17.676Z,5.50
2022-08-22T21:39:48.748Z,7.70
2022-08-22T21:42:25.534Z,7.87
2022-08-22T21:44:58.497Z,6.23
2022-08-22T21:47:33.146Z,9.40
2022-08-22T21:50:06.011Z,9.43
2022-08-22T21:52:36.887Z,5.40
2022-08-22T21:55:16.706Z,8.00
2022-08-22T21:57:45.146Z,6.70
2022-08-22T22:00:48.858Z,5.70
2022-08-22T22:03:19.839Z,9.17
2022-08-22T22:05:49.207Z,5.23
2022-08-22T22:08:20.039Z,7.60
2022-08-22T22:10:50.930Z,4.93
2022-08-22T22:13:23.895Z,7.00
2022-08-22T22:15:58.399Z,5.13
2022-08-22T22:18:33.948Z,6.20
2022-08-22T22:21:03.308Z,5.60
2022-08-22T22:23:36.827Z,9.97
2022-08-22T22:26:10.244Z,8.63
2022-08-22T22:28:43.128Z,7.20
2022-08-22T22:31:12.158Z,6.70
2022-08-22T22:33:43.878Z,5.60
2022-08-22T22:36:19.217Z,8.80
2022-08-22T22:38:54.156Z,6.73
2022-08-22T22:41:32.130Z,6.00
2022-08-22T22:44:04.892Z,6.43
2022-08-22T22:46:33.989Z,5.67
2022-08-22T22:49:06.101Z,6.63
2022-08-22T22:51:37.034Z,10.53
2022-08-22T22:54:08.555Z,7.80
2022-08-22T22:56:40.035Z,6.90
2022-08-22T22:59:13.197Z,8.37
2022-08-22T23:02:04.646Z,8.23
2022-08-22T23:04:34.924Z,6.10
2022-08-22T23:07:04.474Z,8.03
2022-08-22T23:09:38.566Z,6.97
2022-08-22T23:12:14.344Z,9.33
2022-08-22T23:14:45.725Z,8.63
2022-08-22T23:17:14.889Z,5.87
2022-08-22T23:19:46.311Z,6.60
2022-08-22T23:22:22.437Z,6.97
2022-08-22T23:24:52.513Z,6.77
2022-08-22T23:27:24.136Z,5.70
2022-08-22T23:29:54.412Z,6.40
2022-08-22T23:32:23.591Z,7.10
2022-08-22T23:34:58.109Z,7.93
2022-08-22T23:37:26.999Z,7.27
2022-08-22T23:39:58.573Z,6.40
2022-08-22T23:42:29.284Z,9.03
2022-08-22T23:44:59.089Z,6.20
2022-08-22T23:47:28.102Z,6.13
2022-08-22T23:50:05.725Z,6.30
2022-08-22T23:52:36.315Z,7.67
2022-08-22T23:55:07.656Z,7.23
2022-08-22T23:57:36.945Z,5.87
